CYUY

Rouyn Noranda Airport

ICAO Code CYUY
IATA Code YUY
Name Rouyn Noranda Airport
Location Rouyn-Noranda, Quebec, CA
Elevation 988 Feet / 301.1 Meters
Latitude 48.20611111
Longitude -78.83555556
METAR CYUY 182300Z 26003KT 15SM FEW077 SCT260 26/13 A2986 RMK AC2CI1 SLP115 DENSITY ALT 2600FT
Extra information Display NOTAMS
Display Charts
Runway Length Width Surface Elevation
08 7500 ft 150 ft ASP 973 ft
26 7500 ft 150 ft ASP 988 ft

Mandatory Routes

Rouyn Noranda Airport

Direction Destination Level Remark Type Route
DEP TO SE L RNAV YUY B7 YMW T717 BEMOG
ARR FR CYQB H&L RNAV YQB OLAVO YVO V372 YUY
ARR FR CYQB H&L RNAV YQB UDBAM DICEN BERUT YVO V372 YUY